Terminal Aerodrome Forecast
Issued by NWS Sterling, VA

Current Version | Previous Version | Text Only | Print | Product List | Glossary Off
Versions: 1 2 3 4 5 6 7 8 9 10 11 12 13 14

000
FTUS41 KLWX 192320
TAFMRB
TAF
KMRB 192320Z 2000/2024 VRB04KT P6SM FEW250
     FM200600 30005KT P6SM FEW250
     FM201300 33008KT P6SM FEW250
     FM202300 VRB03KT P6SM FEW250=

USA.gov is the U.S. government's official web portal to all federal, state and local government web resources and services.